Airport Name : Cocos Keeling Island

Other Name : Cocos Keeling

ICAO : YPCC

IATA : CCK

FAA :

Latitude : -12.188333

Longitude : 96.833889

Country : Cocos (Keeling) Islands

Local Date and Time : 20 Jul 2024 13:03

 

TAF (Terminal Aerodrome Forecast)

TAF AMD YPCC 200448Z 2004/2106 09016KT 9999 SCT020 INTER 2007/2009 3000 SHRA BKN010 INTER 2016/2103 3000 SHRA BKN010

 

METAR (METeorological Aerodrome Report)

YPCC 200625Z AUTO 09015G25KT 9999 // SCT023 BKN036 29/24 Q1013

YPCC 200600Z AUTO 09018KT 9999 // SCT023 SCT034 29/24 Q1013

YPCC 200530Z AUTO 09017KT 9999 // SCT023 29/24 Q1013 RF00.0/000.0

YPCC 200500Z AUTO 09017KT 9999 // SCT023 SCT029 29/24 Q1014

YPCC 200430Z AUTO 09019KT 9999 // FEW026 29/24 Q1014 RF00.0/000.0

YPCC 200400Z AUTO 10012KT 9999 // FEW026 29/24 Q1014 RF00.0/000.0

YPCC 200330Z AUTO 09015KT 9999 // SCT024 29/24 Q1014 RF00.0/000.0

YPCC 200300Z AUTO 10013KT 9999 // SCT024 28/24 Q1014 RF00.0/000.4